sensor_id;sensor_type;location;lat;lon;timestamp;pressure;altitude;pressure_sealevel;temperature;humidity
4392;BME280;2210;51.938;8.488;2022-10-16T00:02:19;100054.78;;;14.04;100.00
4392;BME280;2210;51.938;8.488;2022-10-16T00:06:21;100067.78;;;14.04;100.00
4392;BME280;2210;51.938;8.488;2022-10-16T00:10:22;100065.88;;;14.04;100.00
4392;BME280;2210;51.938;8.488;2022-10-16T00:14:22;100052.00;;;13.99;100.00
4392;BME280;2210;51.938;8.488;2022-10-16T00:18:24;100058.34;;;13.99;100.00
4392;BME280;2210;51.938;8.488;2022-10-16T00:22:24;100069.69;;;13.93;100.00
4392;BME280;2210;51.938;8.488;2022-10-16T00:26:27;100071.38;;;13.94;100.00
4392;BME280;2210;51.938;8.488;2022-10-16T00:30:28;100078.56;;;13.90;100.00
4392;BME280;2210;51.938;8.488;2022-10-16T00:34:29;100074.66;;;13.86;100.00
4392;BME280;2210;51.938;8.488;2022-10-16T00:38:29;100069.41;;;13.84;100.00
4392;BME280;2210;51.938;8.488;2022-10-16T00:42:29;100053.06;;;13.82;100.00
4392;BME280;2210;51.938;8.488;2022-10-16T00:46:40;100056.63;;;13.78;100.00
4392;BME280;2210;51.938;8.488;2022-10-16T00:50:41;100061.34;;;13.77;100.00
4392;BME280;2210;51.938;8.488;2022-10-16T00:54:44;100068.56;;;13.78;100.00
4392;BME280;2210;51.938;8.488;2022-10-16T00:58:46;100058.28;;;13.79;100.00
4392;BME280;2210;51.938;8.488;2022-10-16T01:02:57;100071.31;;;13.83;100.00
4392;BME280;2210;51.938;8.488;2022-10-16T01:07:16;100067.16;;;13.76;100.00
4392;BME280;2210;51.938;8.488;2022-10-16T01:11:35;100082.91;;;13.70;100.00
4392;BME280;2210;51.938;8.488;2022-10-16T01:16:08;100083.94;;;13.59;100.00
4392;BME280;2210;51.938;8.488;2022-10-16T01:20:33;100074.47;;;13.44;100.00
4392;BME280;2210;51.938;8.488;2022-10-16T01:24:58;100075.56;;;13.43;100.00
4392;BME280;2210;51.938;8.488;2022-10-16T01:29:09;100077.13;;;13.34;100.00
4392;BME280;2210;51.938;8.488;2022-10-16T01:33:17;100083.72;;;13.28;100.00
4392;BME280;2210;51.938;8.488;2022-10-16T01:37:35;100097.00;;;13.26;100.00
4392;BME280;2210;51.938;8.488;2022-10-16T01:41:41;100101.94;;;13.19;100.00
4392;BME280;2210;51.938;8.488;2022-10-16T01:45:44;100110.22;;;13.13;100.00
4392;BME280;2210;51.938;8.488;2022-10-16T01:49:46;100104.69;;;13.13;100.00
4392;BME280;2210;51.938;8.488;2022-10-16T01:53:50;100099.41;;;13.12;100.00
4392;BME280;2210;51.938;8.488;2022-10-16T01:57:54;100100.50;;;13.11;100.00
4392;BME280;2210;51.938;8.488;2022-10-16T02:01:58;100094.44;;;13.14;100.00
4392;BME280;2210;51.938;8.488;2022-10-16T02:05:59;100091.66;;;13.14;100.00
4392;BME280;2210;51.938;8.488;2022-10-16T02:10:00;100101.06;;;13.13;100.00
4392;BME280;2210;51.938;8.488;2022-10-16T02:14:06;100096.06;;;13.10;100.00
4392;BME280;2210;51.938;8.488;2022-10-16T02:18:07;100091.88;;;13.07;100.00
4392;BME280;2210;51.938;8.488;2022-10-16T02:22:12;100094.38;;;13.09;100.00
4392;BME280;2210;51.938;8.488;2022-10-16T02:26:23;100084.69;;;13.06;100.00
4392;BME280;2210;51.938;8.488;2022-10-16T02:30:33;100094.09;;;13.05;100.00
4392;BME280;2210;51.938;8.488;2022-10-16T02:34:36;100088.25;;;13.02;100.00
4392;BME280;2210;51.938;8.488;2022-10-16T02:38:39;100092.47;;;13.09;100.00
4392;BME280;2210;51.938;8.488;2022-10-16T02:42:40;100098.53;;;13.06;100.00
4392;BME280;2210;51.938;8.488;2022-10-16T02:46:41;100094.69;;;13.12;100.00
4392;BME280;2210;51.938;8.488;2022-10-16T02:50:41;100097.50;;;13.18;100.00
4392;BME280;2210;51.938;8.488;2022-10-16T02:54:42;100100.66;;;13.31;100.00
4392;BME280;2210;51.938;8.488;2022-10-16T02:58:42;100093.97;;;13.27;100.00
4392;BME280;2210;51.938;8.488;2022-10-16T03:02:43;100103.63;;;13.25;100.00
4392;BME280;2210;51.938;8.488;2022-10-16T03:06:43;100107.00;;;13.27;100.00
4392;BME280;2210;51.938;8.488;2022-10-16T03:10:43;100105.84;;;13.23;100.00
4392;BME280;2210;51.938;8.488;2022-10-16T03:14:44;100108.63;;;13.28;100.00
4392;BME280;2210;51.938;8.488;2022-10-16T03:18:48;100109.72;;;13.22;100.00
4392;BME280;2210;51.938;8.488;2022-10-16T03:22:48;100116.34;;;13.21;100.00
4392;BME280;2210;51.938;8.488;2022-10-16T03:26:48;100102.50;;;13.21;100.00
4392;BME280;2210;51.938;8.488;2022-10-16T03:30:49;100103.59;;;13.20;100.00
4392;BME280;2210;51.938;8.488;2022-10-16T03:34:49;100096.66;;;13.17;100.00
4392;BME280;2210;51.938;8.488;2022-10-16T03:38:49;100111.03;;;13.14;100.00
4392;BME280;2210;51.938;8.488;2022-10-16T03:42:50;100111.63;;;13.16;100.00
4392;BME280;2210;51.938;8.488;2022-10-16T03:46:50;100102.47;;;13.15;100.00
4392;BME280;2210;51.938;8.488;2022-10-16T03:50:50;100116.31;;;13.15;100.00
4392;BME280;2210;51.938;8.488;2022-10-16T03:54:51;100119.66;;;13.18;100.00
4392;BME280;2210;51.938;8.488;2022-10-16T03:58:52;100113.56;;;13.21;100.00
4392;BME280;2210;51.938;8.488;2022-10-16T04:02:52;100114.44;;;13.21;100.00
4392;BME280;2210;51.938;8.488;2022-10-16T04:06:52;100113.56;;;13.21;100.00
4392;BME280;2210;51.938;8.488;2022-10-16T04:10:52;100108.91;;;13.26;100.00
4392;BME280;2210;51.938;8.488;2022-10-16T04:14:53;100112.00;;;13.30;100.00
4392;BME280;2210;51.938;8.488;2022-10-16T04:18:53;100113.09;;;13.29;100.00
4392;BME280;2210;51.938;8.488;2022-10-16T04:22:53;100108.94;;;13.31;100.00
4392;BME280;2210;51.938;8.488;2022-10-16T04:26:53;100126.16;;;13.33;100.00
4392;BME280;2210;51.938;8.488;2022-10-16T04:30:54;100127.59;;;13.36;100.00
4392;BME280;2210;51.938;8.488;2022-10-16T04:34:54;100135.06;;;13.41;100.00
4392;BME280;2210;51.938;8.488;2022-10-16T04:38:54;100143.13;;;13.42;100.00
4392;BME280;2210;51.938;8.488;2022-10-16T04:42:55;100142.03;;;13.43;100.00
4392;BME280;2210;51.938;8.488;2022-10-16T04:46:55;100133.72;;;13.43;100.00
4392;BME280;2210;51.938;8.488;2022-10-16T04:50:55;100147.28;;;13.45;100.00
4392;BME280;2210;51.938;8.488;2022-10-16T04:54:56;100160.03;;;13.46;100.00
4392;BME280;2210;51.938;8.488;2022-10-16T04:59:00;100155.59;;;13.45;100.00
4392;BME280;2210;51.938;8.488;2022-10-16T05:03:01;100157.88;;;13.53;100.00
4392;BME280;2210;51.938;8.488;2022-10-16T05:07:01;100169.53;;;13.55;100.00
4392;BME280;2210;51.938;8.488;2022-10-16T05:11:02;100172.00;;;13.52;100.00
4392;BME280;2210;51.938;8.488;2022-10-16T05:15:02;100167.53;;;13.51;100.00
4392;BME280;2210;51.938;8.488;2022-10-16T05:19:03;100160.56;;;13.43;100.00
4392;BME280;2210;51.938;8.488;2022-10-16T05:23:03;100168.31;;;13.41;100.00
4392;BME280;2210;51.938;8.488;2022-10-16T05:27:03;100176.00;;;13.33;100.00
4392;BME280;2210;51.938;8.488;2022-10-16T05:31:08;100183.44;;;13.33;100.00
4392;BME280;2210;51.938;8.488;2022-10-16T05:35:09;100172.84;;;13.25;100.00
4392;BME280;2210;51.938;8.488;2022-10-16T05:39:09;100178.38;;;13.25;100.00
4392;BME280;2210;51.938;8.488;2022-10-16T05:43:10;100181.38;;;13.18;100.00
4392;BME280;2210;51.938;8.488;2022-10-16T05:47:12;100187.72;;;13.13;100.00
4392;BME280;2210;51.938;8.488;2022-10-16T05:51:13;100199.06;;;13.17;100.00
4392;BME280;2210;51.938;8.488;2022-10-16T05:55:14;100217.41;;;13.23;100.00
4392;BME280;2210;51.938;8.488;2022-10-16T05:59:14;100217.06;;;13.14;100.00
4392;BME280;2210;51.938;8.488;2022-10-16T06:03:14;100214.84;;;13.16;100.00
4392;BME280;2210;51.938;8.488;2022-10-16T06:07:15;100218.09;;;13.08;100.00
4392;BME280;2210;51.938;8.488;2022-10-16T06:11:23;100230.78;;;13.04;100.00
4392;BME280;2210;51.938;8.488;2022-10-16T06:15:24;100228.56;;;13.01;100.00
4392;BME280;2210;51.938;8.488;2022-10-16T06:19:24;100234.09;;;13.01;100.00
4392;BME280;2210;51.938;8.488;2022-10-16T06:23:25;100241.88;;;13.04;100.00
4392;BME280;2210;51.938;8.488;2022-10-16T06:27:25;100239.91;;;13.05;100.00
4392;BME280;2210;51.938;8.488;2022-10-16T06:31:27;100247.19;;;13.11;100.00
4392;BME280;2210;51.938;8.488;2022-10-16T06:35:30;100247.00;;;13.18;100.00
4392;BME280;2210;51.938;8.488;2022-10-16T06:39:31;100251.72;;;13.22;100.00
4392;BME280;2210;51.938;8.488;2022-10-16T06:43:32;100259.81;;;13.29;100.00
4392;BME280;2210;51.938;8.488;2022-10-16T06:47:35;100263.19;;;13.31;100.00
4392;BME280;2210;51.938;8.488;2022-10-16T06:51:35;100275.41;;;13.35;100.00
4392;BME280;2210;51.938;8.488;2022-10-16T06:55:40;100279.78;;;13.31;100.00
4392;BME280;2210;51.938;8.488;2022-10-16T06:59:40;100292.50;;;13.32;100.00
4392;BME280;2210;51.938;8.488;2022-10-16T07:03:42;100295.63;;;13.36;100.00
4392;BME280;2210;51.938;8.488;2022-10-16T07:07:42;100299.34;;;13.46;100.00
4392;BME280;2210;51.938;8.488;2022-10-16T07:11:43;100294.13;;;13.50;100.00
4392;BME280;2210;51.938;8.488;2022-10-16T07:15:43;100300.22;;;13.52;100.00
4392;BME280;2210;51.938;8.488;2022-10-16T07:19:44;100306.69;;;13.63;100.00
4392;BME280;2210;51.938;8.488;2022-10-16T07:23:45;100318.66;;;13.69;100.00
4392;BME280;2210;51.938;8.488;2022-10-16T07:27:45;100333.44;;;13.79;100.00
4392;BME280;2210;51.938;8.488;2022-10-16T07:31:46;100337.66;;;13.87;100.00
4392;BME280;2210;51.938;8.488;2022-10-16T07:35:50;100340.53;;;13.97;100.00
4392;BME280;2210;51.938;8.488;2022-10-16T07:39:51;100352.81;;;14.07;100.00
4392;BME280;2210;51.938;8.488;2022-10-16T07:43:52;100364.19;;;14.10;100.00
4392;BME280;2210;51.938;8.488;2022-10-16T07:47:53;100362.59;;;14.20;100.00
4392;BME280;2210;51.938;8.488;2022-10-16T07:51:53;100372.88;;;14.24;100.00
4392;BME280;2210;51.938;8.488;2022-10-16T07:56:01;100385.34;;;14.22;100.00
4392;BME280;2210;51.938;8.488;2022-10-16T08:00:02;100386.44;;;14.21;100.00
4392;BME280;2210;51.938;8.488;2022-10-16T08:04:03;100384.50;;;14.21;100.00
4392;BME280;2210;51.938;8.488;2022-10-16T08:08:03;100382.25;;;14.18;100.00
4392;BME280;2210;51.938;8.488;2022-10-16T08:12:03;100386.50;;;14.26;100.00
4392;BME280;2210;51.938;8.488;2022-10-16T08:16:04;100396.59;;;14.42;100.00
4392;BME280;2210;51.938;8.488;2022-10-16T08:20:08;100397.50;;;14.53;100.00
4392;BME280;2210;51.938;8.488;2022-10-16T08:24:08;100395.16;;;14.72;100.00
4392;BME280;2210;51.938;8.488;2022-10-16T08:28:10;100400.22;;;14.86;100.00
4392;BME280;2210;51.938;8.488;2022-10-16T08:32:10;100404.16;;;15.00;100.00
4392;BME280;2210;51.938;8.488;2022-10-16T08:36:11;100415.41;;;15.21;100.00
4392;BME280;2210;51.938;8.488;2022-10-16T08:40:24;100425.44;;;15.32;100.00
4392;BME280;2210;51.938;8.488;2022-10-16T08:48:48;100440.50;;;15.51;100.00
4392;BME280;2210;51.938;8.488;2022-10-16T08:52:49;100440.25;;;15.63;100.00
4392;BME280;2210;51.938;8.488;2022-10-16T08:56:49;100447.78;;;15.78;100.00
4392;BME280;2210;51.938;8.488;2022-10-16T09:00:53;100450.66;;;15.89;100.00
4392;BME280;2210;51.938;8.488;2022-10-16T09:04:57;100456.78;;;15.96;100.00
4392;BME280;2210;51.938;8.488;2022-10-16T09:13:48;100460.41;;;16.07;100.00
4392;BME280;2210;51.938;8.488;2022-10-16T09:18:05;100468.47;;;16.13;100.00
4392;BME280;2210;51.938;8.488;2022-10-16T09:22:14;100471.53;;;16.27;100.00
4392;BME280;2210;51.938;8.488;2022-10-16T09:26:16;100478.50;;;16.45;100.00
4392;BME280;2210;51.938;8.488;2022-10-16T09:30:19;100488.25;;;16.48;100.00
4392;BME280;2210;51.938;8.488;2022-10-16T09:34:30;100477.97;;;16.48;100.00
4392;BME280;2210;51.938;8.488;2022-10-16T09:38:34;100471.25;;;16.55;100.00
4392;BME280;2210;51.938;8.488;2022-10-16T09:42:36;100477.13;;;16.68;100.00
4392;BME280;2210;51.938;8.488;2022-10-16T09:46:37;100477.66;;;16.91;100.00
4392;BME280;2210;51.938;8.488;2022-10-16T09:50:39;100479.91;;;16.94;100.00
4392;BME280;2210;51.938;8.488;2022-10-16T09:55:11;100484.63;;;16.73;98.93
4392;BME280;2210;51.938;8.488;2022-10-16T09:59:21;100491.88;;;16.74;100.00
4392;BME280;2210;51.938;8.488;2022-10-16T10:03:36;100499.66;;;16.72;100.00
4392;BME280;2210;51.938;8.488;2022-10-16T10:07:42;100505.78;;;16.59;94.61
4392;BME280;2210;51.938;8.488;2022-10-16T10:11:57;100508.56;;;16.79;93.91
4392;BME280;2210;51.938;8.488;2022-10-16T10:15:57;100505.78;;;16.79;91.91
4392;BME280;2210;51.938;8.488;2022-10-16T10:24:27;100514.16;;;17.05;91.64
4392;BME280;2210;51.938;8.488;2022-10-16T10:46:39;100513.41;;;17.60;85.44
4392;BME280;2210;51.938;8.488;2022-10-16T10:50:48;100526.19;;;17.66;83.77
4392;BME280;2210;51.938;8.488;2022-10-16T11:07:59;100528.72;;;18.28;81.93
4392;BME280;2210;51.938;8.488;2022-10-16T11:12:19;100517.47;;;18.38;81.26
4392;BME280;2210;51.938;8.488;2022-10-16T11:16:28;100527.47;;;18.44;82.73
4392;BME280;2210;51.938;8.488;2022-10-16T11:20:33;100532.63;;;18.22;80.52
4392;BME280;2210;51.938;8.488;2022-10-16T11:24:41;100537.84;;;17.94;81.06
4392;BME280;2210;51.938;8.488;2022-10-16T11:28:47;100542.38;;;17.69;82.95
4392;BME280;2210;51.938;8.488;2022-10-16T11:37:27;100544.66;;;17.57;81.50
4392;BME280;2210;51.938;8.488;2022-10-16T11:41:50;100553.63;;;17.33;83.39
4392;BME280;2210;51.938;8.488;2022-10-16T11:45:54;100555.31;;;17.24;84.28
4392;BME280;2210;51.938;8.488;2022-10-16T11:49:59;100552.47;;;17.49;84.63
4392;BME280;2210;51.938;8.488;2022-10-16T11:58:32;100553.03;;;17.57;82.25
4392;BME280;2210;51.938;8.488;2022-10-16T12:11:09;100551.28;;;17.71;
4392;BME280;2210;51.938;8.488;2022-10-16T12:15:30;100567.00;;;17.41;82.01
4392;BME280;2210;51.938;8.488;2022-10-16T12:19:31;100567.00;;;17.41;83.10
4392;BME280;2210;51.938;8.488;2022-10-16T12:23:47;100568.06;;;17.56;81.98
4392;BME280;2210;51.938;8.488;2022-10-16T12:27:54;100562.75;;;17.59;84.19
4392;BME280;2210;51.938;8.488;2022-10-16T12:31:55;100571.63;;;17.77;82.07
4392;BME280;2210;51.938;8.488;2022-10-16T12:35:57;100572.13;;;17.89;80.87
4392;BME280;2210;51.938;8.488;2022-10-16T12:39:58;100574.63;;;17.96;79.68
4392;BME280;2210;51.938;8.488;2022-10-16T12:44:00;100582.75;;;17.97;80.06
4392;BME280;2210;51.938;8.488;2022-10-16T12:48:04;100572.69;;;17.96;79.15
4392;BME280;2210;51.938;8.488;2022-10-16T13:10:11;100591.31;;;18.11;76.75
4392;BME280;2210;51.938;8.488;2022-10-16T13:23:33;100605.28;;;18.06;79.56
4392;BME280;2210;51.938;8.488;2022-10-16T13:31:46;100615.09;;;17.88;78.06
4392;BME280;2210;51.938;8.488;2022-10-16T13:35:49;100606.78;;;17.67;81.22
4392;BME280;2210;51.938;8.488;2022-10-16T13:39:50;100615.75;;;17.54;81.83
4392;BME280;2210;51.938;8.488;2022-10-16T13:43:52;100618.25;;;17.45;84.23
4392;BME280;2210;51.938;8.488;2022-10-16T13:48:08;100621.06;;;17.45;81.57
4392;BME280;2210;51.938;8.488;2022-10-16T13:52:20;100616.28;;;17.61;82.55
4392;BME280;2210;51.938;8.488;2022-10-16T13:56:22;100629.63;;;17.75;80.89
4392;BME280;2210;51.938;8.488;2022-10-16T14:00:25;100629.63;;;17.80;82.33
4392;BME280;2210;51.938;8.488;2022-10-16T14:04:32;100626.56;;;17.81;83.56
4392;BME280;2210;51.938;8.488;2022-10-16T14:08:33;100637.16;;;17.95;84.73
4392;BME280;2210;51.938;8.488;2022-10-16T14:12:34;100632.97;;;17.92;83.47
4392;BME280;2210;51.938;8.488;2022-10-16T14:16:34;100641.88;;;17.94;82.33
4392;BME280;2210;51.938;8.488;2022-10-16T14:20:34;100641.84;;;17.89;82.24
4392;BME280;2210;51.938;8.488;2022-10-16T14:24:35;100644.13;;;17.97;82.22
4392;BME280;2210;51.938;8.488;2022-10-16T14:28:39;100637.16;;;17.95;82.56
4392;BME280;2210;51.938;8.488;2022-10-16T14:32:41;100637.09;;;18.05;80.24
4392;BME280;2210;51.938;8.488;2022-10-16T14:36:42;100632.94;;;17.97;81.91
4392;BME280;2210;51.938;8.488;2022-10-16T14:40:47;100632.66;;;17.89;81.58
4392;BME280;2210;51.938;8.488;2022-10-16T14:44:49;100631.56;;;17.79;83.22
4392;BME280;2210;51.938;8.488;2022-10-16T14:49:00;100624.94;;;17.65;84.07
4392;BME280;2210;51.938;8.488;2022-10-16T14:53:00;100635.53;;;17.63;84.00
4392;BME280;2210;51.938;8.488;2022-10-16T14:57:01;100629.94;;;17.63;84.21
4392;BME280;2210;51.938;8.488;2022-10-16T15:01:01;100632.19;;;17.61;82.14
4392;BME280;2210;51.938;8.488;2022-10-16T15:05:12;100638.88;;;17.55;84.13
4392;BME280;2210;51.938;8.488;2022-10-16T15:09:12;100641.69;;;17.44;84.55
4392;BME280;2210;51.938;8.488;2022-10-16T15:13:13;100640.31;;;17.42;85.04
4392;BME280;2210;51.938;8.488;2022-10-16T15:17:14;100656.75;;;17.38;86.72
4392;BME280;2210;51.938;8.488;2022-10-16T15:21:32;100656.75;;;17.38;85.79
4392;BME280;2210;51.938;8.488;2022-10-16T15:29:50;100657.31;;;17.25;84.90
4392;BME280;2210;51.938;8.488;2022-10-16T15:33:52;100652.84;;;17.18;85.40
4392;BME280;2210;51.938;8.488;2022-10-16T15:37:54;100668.44;;;17.14;85.24
4392;BME280;2210;51.938;8.488;2022-10-16T15:41:54;100659.81;;;17.06;86.37
4392;BME280;2210;51.938;8.488;2022-10-16T15:46:03;100661.19;;;16.93;87.66
4392;BME280;2210;51.938;8.488;2022-10-16T15:50:04;100653.66;;;16.88;87.79
4392;BME280;2210;51.938;8.488;2022-10-16T15:54:05;100660.94;;;16.89;88.81
4392;BME280;2210;51.938;8.488;2022-10-16T15:58:05;100650.59;;;16.90;86.95
4392;BME280;2210;51.938;8.488;2022-10-16T16:02:06;100641.09;;;16.80;91.16
4392;BME280;2210;51.938;8.488;2022-10-16T16:06:08;100662.22;;;16.56;93.80
4392;BME280;2210;51.938;8.488;2022-10-16T16:10:10;100671.66;;;16.55;95.09
4392;BME280;2210;51.938;8.488;2022-10-16T16:14:15;100670.03;;;16.69;95.28
4392;BME280;2210;51.938;8.488;2022-10-16T16:18:15;100674.16;;;16.56;96.30
4392;BME280;2210;51.938;8.488;2022-10-16T16:22:15;100685.03;;;16.63;98.16
4392;BME280;2210;51.938;8.488;2022-10-16T16:26:24;100696.41;;;16.46;100.00
4392;BME280;2210;51.938;8.488;2022-10-16T16:30:28;100676.09;;;16.40;100.00
4392;BME280;2210;51.938;8.488;2022-10-16T16:34:28;100683.59;;;16.40;100.00
4392;BME280;2210;51.938;8.488;2022-10-16T16:38:29;100678.88;;;16.45;100.00
4392;BME280;2210;51.938;8.488;2022-10-16T16:42:29;100689.44;;;16.38;100.00
4392;BME280;2210;51.938;8.488;2022-10-16T16:46:31;100690.75;;;16.20;100.00
4392;BME280;2210;51.938;8.488;2022-10-16T16:50:35;100692.53;;;15.94;100.00
4392;BME280;2210;51.938;8.488;2022-10-16T16:54:36;100696.50;;;15.98;100.00
4392;BME280;2210;51.938;8.488;2022-10-16T16:58:36;100699.31;;;16.08;100.00
4392;BME280;2210;51.938;8.488;2022-10-16T17:02:37;100697.63;;;16.07;100.00
4392;BME280;2210;51.938;8.488;2022-10-16T17:06:37;100702.34;;;16.01;100.00
4392;BME280;2210;51.938;8.488;2022-10-16T17:10:43;100698.09;;;15.94;100.00
4392;BME280;2210;51.938;8.488;2022-10-16T17:14:44;100696.38;;;15.82;100.00
4392;BME280;2210;51.938;8.488;2022-10-16T17:18:44;100717.03;;;15.92;100.00
4392;BME280;2210;51.938;8.488;2022-10-16T17:22:44;100718.69;;;15.93;100.00
4392;BME280;2210;51.938;8.488;2022-10-16T17:26:45;100730.38;;;15.95;100.00
4392;BME280;2210;51.938;8.488;2022-10-16T17:30:48;100732.06;;;15.96;100.00
4392;BME280;2210;51.938;8.488;2022-10-16T17:34:48;100740.38;;;15.91;100.00
4392;BME280;2210;51.938;8.488;2022-10-16T17:38:48;100742.44;;;15.73;100.00
4392;BME280;2210;51.938;8.488;2022-10-16T17:42:49;100742.88;;;15.60;100.00
4392;BME280;2210;51.938;8.488;2022-10-16T17:46:51;100743.56;;;15.72;100.00
4392;BME280;2210;51.938;8.488;2022-10-16T17:50:52;100739.88;;;15.61;100.00
4392;BME280;2210;51.938;8.488;2022-10-16T17:54:52;100731.13;;;15.47;100.00
4392;BME280;2210;51.938;8.488;2022-10-16T17:58:54;100735.84;;;15.47;100.00
4392;BME280;2210;51.938;8.488;2022-10-16T18:02:55;100745.06;;;15.52;100.00
4392;BME280;2210;51.938;8.488;2022-10-16T18:06:55;100752.91;;;15.61;100.00
4392;BME280;2210;51.938;8.488;2022-10-16T18:10:55;100770.69;;;15.60;100.00
4392;BME280;2210;51.938;8.488;2022-10-16T18:14:56;100776.22;;;15.55;100.00
4392;BME280;2210;51.938;8.488;2022-10-16T18:18:58;100774.09;;;15.67;100.00
4392;BME280;2210;51.938;8.488;2022-10-16T18:22:58;100767.69;;;15.66;100.00
4392;BME280;2210;51.938;8.488;2022-10-16T18:26:58;100763.41;;;15.54;100.00
4392;BME280;2210;51.938;8.488;2022-10-16T18:31:02;100764.47;;;15.47;100.00
4392;BME280;2210;51.938;8.488;2022-10-16T18:35:02;100777.44;;;15.37;100.00
4392;BME280;2210;51.938;8.488;2022-10-16T18:39:04;100782.09;;;15.31;100.00
4392;BME280;2210;51.938;8.488;2022-10-16T18:43:08;100785.16;;;15.29;100.00
4392;BME280;2210;51.938;8.488;2022-10-16T18:47:09;100779.94;;;15.38;100.00
4392;BME280;2210;51.938;8.488;2022-10-16T18:55:14;100788.13;;;15.23;100.00
4392;BME280;2210;51.938;8.488;2022-10-16T18:59:15;100777.81;;;15.18;100.00
4392;BME280;2210;51.938;8.488;2022-10-16T19:03:15;100763.59;;;15.14;100.00
4392;BME280;2210;51.938;8.488;2022-10-16T19:07:17;100758.72;;;15.27;100.00
4392;BME280;2210;51.938;8.488;2022-10-16T19:11:19;100760.19;;;15.34;100.00
4392;BME280;2210;51.938;8.488;2022-10-16T19:15:20;100763.03;;;15.40;100.00
4392;BME280;2210;51.938;8.488;2022-10-16T19:19:21;100755.25;;;15.42;100.00
4392;BME280;2210;51.938;8.488;2022-10-16T19:23:22;100750.00;;;15.45;100.00
4392;BME280;2210;51.938;8.488;2022-10-16T19:27:23;100745.28;;;15.46;100.00
4392;BME280;2210;51.938;8.488;2022-10-16T19:31:24;100760.84;;;15.47;100.00
4392;BME280;2210;51.938;8.488;2022-10-16T19:35:25;100755.84;;;15.49;100.00
4392;BME280;2210;51.938;8.488;2022-10-16T19:39:26;100760.59;;;15.48;100.00
4392;BME280;2210;51.938;8.488;2022-10-16T19:43:26;100759.22;;;15.51;100.00
4392;BME280;2210;51.938;8.488;2022-10-16T19:47:26;100770.94;;;15.58;100.00
4392;BME280;2210;51.938;8.488;2022-10-16T19:51:27;100763.47;;;15.59;100.00
4392;BME280;2210;51.938;8.488;2022-10-16T19:55:30;100773.16;;;15.56;100.00
4392;BME280;2210;51.938;8.488;2022-10-16T19:59:30;100753.41;;;15.52;100.00
4392;BME280;2210;51.938;8.488;2022-10-16T20:03:30;100758.41;;;15.50;100.00
4392;BME280;2210;51.938;8.488;2022-10-16T20:07:31;100771.16;;;15.51;100.00
4392;BME280;2210;51.938;8.488;2022-10-16T20:11:33;100791.75;;;15.56;100.00
4392;BME280;2210;51.938;8.488;2022-10-16T20:15:36;100802.09;;;15.60;100.00
4392;BME280;2210;51.938;8.488;2022-10-16T20:19:36;100805.28;;;15.74;100.00
4392;BME280;2210;51.938;8.488;2022-10-16T20:23:38;100814.38;;;15.64;100.00
4392;BME280;2210;51.938;8.488;2022-10-16T20:27:39;100820.53;;;15.72;100.00
4392;BME280;2210;51.938;8.488;2022-10-16T20:31:39;100846.16;;;15.74;100.00
4392;BME280;2210;51.938;8.488;2022-10-16T20:35:44;100854.66;;;15.62;100.00
4392;BME280;2210;51.938;8.488;2022-10-16T20:39:46;100858.38;;;15.45;100.00
4392;BME280;2210;51.938;8.488;2022-10-16T20:43:48;100830.88;;;15.22;100.00
4392;BME280;2210;51.938;8.488;2022-10-16T20:47:49;100835.22;;;15.12;100.00
4392;BME280;2210;51.938;8.488;2022-10-16T20:51:49;100835.75;;;15.09;100.00
4392;BME280;2210;51.938;8.488;2022-10-16T20:55:49;100840.69;;;15.02;100.00
4392;BME280;2210;51.938;8.488;2022-10-16T20:59:50;100831.25;;;15.03;100.00
4392;BME280;2210;51.938;8.488;2022-10-16T21:03:56;100842.94;;;15.05;100.00
4392;BME280;2210;51.938;8.488;2022-10-16T21:07:57;100842.38;;;15.03;100.00
4392;BME280;2210;51.938;8.488;2022-10-16T21:11:57;100857.28;;;14.97;100.00
4392;BME280;2210;51.938;8.488;2022-10-16T21:15:57;100846.88;;;15.09;100.00
4392;BME280;2210;51.938;8.488;2022-10-16T21:19:58;100848.53;;;15.10;100.00
4392;BME280;2210;51.938;8.488;2022-10-16T21:23:59;100840.41;;;15.04;100.00
4392;BME280;2210;51.938;8.488;2022-10-16T21:27:59;100834.59;;;15.05;100.00
4392;BME280;2210;51.938;8.488;2022-10-16T21:31:59;100837.97;;;15.07;100.00
4392;BME280;2210;51.938;8.488;2022-10-16T21:36:00;100828.47;;;15.03;100.00
4392;BME280;2210;51.938;8.488;2022-10-16T21:40:00;100816.69;;;15.18;100.00
4392;BME280;2210;51.938;8.488;2022-10-16T21:44:01;100816.50;;;15.25;100.00
4392;BME280;2210;51.938;8.488;2022-10-16T21:48:02;100835.19;;;15.07;100.00
4392;BME280;2210;51.938;8.488;2022-10-16T21:52:03;100824.34;;;15.06;100.00
4392;BME280;2210;51.938;8.488;2022-10-16T21:56:04;100825.19;;;15.06;100.00
4392;BME280;2210;51.938;8.488;2022-10-16T22:00:06;100819.41;;;15.13;100.00
4392;BME280;2210;51.938;8.488;2022-10-16T22:04:09;100812.19;;;15.12;100.00
4392;BME280;2210;51.938;8.488;2022-10-16T22:13:07;100802.44;;;15.09;100.00
4392;BME280;2210;51.938;8.488;2022-10-16T22:17:07;100804.38;;;15.09;100.00
4392;BME280;2210;51.938;8.488;2022-10-16T22:21:08;100794.38;;;15.08;100.00
4392;BME280;2210;51.938;8.488;2022-10-16T22:25:08;100791.84;;;15.06;100.00
4392;BME280;2210;51.938;8.488;2022-10-16T22:29:13;100791.03;;;15.06;100.00
4392;BME280;2210;51.938;8.488;2022-10-16T22:33:13;100792.94;;;15.05;100.00
4392;BME280;2210;51.938;8.488;2022-10-16T22:37:13;100785.16;;;15.02;100.00
4392;BME280;2210;51.938;8.488;2022-10-16T22:41:14;100787.31;;;15.00;100.00
4392;BME280;2210;51.938;8.488;2022-10-16T22:45:14;100789.00;;;15.01;100.00
4392;BME280;2210;51.938;8.488;2022-10-16T22:49:15;100786.50;;;14.99;100.00
4392;BME280;2210;51.938;8.488;2022-10-16T22:53:17;100780.94;;;14.99;100.00
4392;BME280;2210;51.938;8.488;2022-10-16T22:57:18;100778.16;;;14.99;100.00
4392;BME280;2210;51.938;8.488;2022-10-16T23:01:25;100777.91;;;15.01;100.00
4392;BME280;2210;51.938;8.488;2022-10-16T23:05:26;100772.09;;;15.03;100.00
4392;BME280;2210;51.938;8.488;2022-10-16T23:09:26;100774.38;;;15.06;100.00
4392;BME280;2210;51.938;8.488;2022-10-16T23:13:27;100777.38;;;15.04;100.00
4392;BME280;2210;51.938;8.488;2022-10-16T23:17:28;100778.22;;;15.05;100.00